sensor_id;sensor_type;location;lat;lon;timestamp;temperature;humidity
18882;DHT22;9573;50.948;11.600;2023-07-13T00:00:48;21.80;86.30
18882;DHT22;9573;50.948;11.600;2023-07-13T00:03:15;21.80;86.30
18882;DHT22;9573;50.948;11.600;2023-07-13T00:05:43;21.80;86.70
18882;DHT22;9573;50.948;11.600;2023-07-13T00:08:11;21.80;86.80
18882;DHT22;9573;50.948;11.600;2023-07-13T00:10:41;21.80;87.10
18882;DHT22;9573;50.948;11.600;2023-07-13T00:13:11;21.80;87.10
18882;DHT22;9573;50.948;11.600;2023-07-13T00:15:38;21.80;86.80
18882;DHT22;9573;50.948;11.600;2023-07-13T00:18:05;21.80;87.30
18882;DHT22;9573;50.948;11.600;2023-07-13T00:20:32;21.80;87.60
18882;DHT22;9573;50.948;11.600;2023-07-13T00:23:00;21.80;87.60
18882;DHT22;9573;50.948;11.600;2023-07-13T00:25:29;21.80;87.50
18882;DHT22;9573;50.948;11.600;2023-07-13T00:27:56;21.80;87.80
18882;DHT22;9573;50.948;11.600;2023-07-13T00:30:23;21.80;87.40
18882;DHT22;9573;50.948;11.600;2023-07-13T00:32:51;21.80;87.20
18882;DHT22;9573;50.948;11.600;2023-07-13T00:35:18;21.90;87.20
18882;DHT22;9573;50.948;11.600;2023-07-13T00:37:45;21.80;87.20
18882;DHT22;9573;50.948;11.600;2023-07-13T00:40:14;21.80;87.30
18882;DHT22;9573;50.948;11.600;2023-07-13T00:42:43;21.90;87.40
18882;DHT22;9573;50.948;11.600;2023-07-13T00:48:37;21.90;87.40
18882;DHT22;9573;50.948;11.600;2023-07-13T00:51:05;21.90;87.10
18882;DHT22;9573;50.948;11.600;2023-07-13T00:53:33;21.80;87.80
18882;DHT22;9573;50.948;11.600;2023-07-13T00:56:01;21.80;87.20
18882;DHT22;9573;50.948;11.600;2023-07-13T00:58:30;21.70;87.30
18882;DHT22;9573;50.948;11.600;2023-07-13T01:00:57;21.70;87.60
18882;DHT22;9573;50.948;11.600;2023-07-13T01:03:24;21.70;87.60
18882;DHT22;9573;50.948;11.600;2023-07-13T01:05:51;21.80;87.80
18882;DHT22;9573;50.948;11.600;2023-07-13T01:08:19;21.80;87.90
18882;DHT22;9573;50.948;11.600;2023-07-13T01:10:54;21.70;87.80
18882;DHT22;9573;50.948;11.600;2023-07-13T01:13:22;21.70;88.20
18882;DHT22;9573;50.948;11.600;2023-07-13T01:15:52;21.60;88.30
18882;DHT22;9573;50.948;11.600;2023-07-13T01:18:21;21.60;88.70
18882;DHT22;9573;50.948;11.600;2023-07-13T01:20:55;21.60;89.20
18882;DHT22;9573;50.948;11.600;2023-07-13T01:23:24;21.30;89.10
18882;DHT22;9573;50.948;11.600;2023-07-13T01:25:53;21.50;88.90
18882;DHT22;9573;50.948;11.600;2023-07-13T01:28:21;21.40;89.10
18882;DHT22;9573;50.948;11.600;2023-07-13T01:30:53;21.40;90.20
18882;DHT22;9573;50.948;11.600;2023-07-13T01:33:21;21.30;89.60
18882;DHT22;9573;50.948;11.600;2023-07-13T01:35:48;21.30;89.40
18882;DHT22;9573;50.948;11.600;2023-07-13T01:38:18;21.30;88.90
18882;DHT22;9573;50.948;11.600;2023-07-13T01:40:47;21.20;88.60
18882;DHT22;9573;50.948;11.600;2023-07-13T01:43:14;21.20;88.90
18882;DHT22;9573;50.948;11.600;2023-07-13T01:45:41;21.20;88.40
18882;DHT22;9573;50.948;11.600;2023-07-13T01:48:09;21.10;88.30
18882;DHT22;9573;50.948;11.600;2023-07-13T01:50:37;21.00;88.60
18882;DHT22;9573;50.948;11.600;2023-07-13T01:53:04;20.90;88.90
18882;DHT22;9573;50.948;11.600;2023-07-13T01:55:34;20.90;90.00
18882;DHT22;9573;50.948;11.600;2023-07-13T01:58:02;20.70;90.30
18882;DHT22;9573;50.948;11.600;2023-07-13T02:00:30;20.50;90.60
18882;DHT22;9573;50.948;11.600;2023-07-13T02:02:58;20.40;90.70
18882;DHT22;9573;50.948;11.600;2023-07-13T02:05:25;20.30;91.00
18882;DHT22;9573;50.948;11.600;2023-07-13T02:07:52;20.20;91.10
18882;DHT22;9573;50.948;11.600;2023-07-13T02:10:19;20.20;91.10
18882;DHT22;9573;50.948;11.600;2023-07-13T02:12:48;20.20;91.10
18882;DHT22;9573;50.948;11.600;2023-07-13T02:15:16;20.30;90.90
18882;DHT22;9573;50.948;11.600;2023-07-13T02:17:43;20.40;90.80
18882;DHT22;9573;50.948;11.600;2023-07-13T02:20:10;20.50;90.80
18882;DHT22;9573;50.948;11.600;2023-07-13T02:22:37;20.40;90.80
18882;DHT22;9573;50.948;11.600;2023-07-13T02:25:05;20.50;90.80
18882;DHT22;9573;50.948;11.600;2023-07-13T02:27:32;20.50;90.90
18882;DHT22;9573;50.948;11.600;2023-07-13T02:30:01;20.50;91.10
18882;DHT22;9573;50.948;11.600;2023-07-13T02:32:28;20.40;91.30
18882;DHT22;9573;50.948;11.600;2023-07-13T02:34:55;20.40;91.90
18882;DHT22;9573;50.948;11.600;2023-07-13T02:37:22;20.40;91.70
18882;DHT22;9573;50.948;11.600;2023-07-13T02:39:49;20.40;91.60
18882;DHT22;9573;50.948;11.600;2023-07-13T02:42:16;20.30;92.40
18882;DHT22;9573;50.948;11.600;2023-07-13T02:44:43;20.30;92.40
18882;DHT22;9573;50.948;11.600;2023-07-13T02:47:12;20.20;92.30
18882;DHT22;9573;50.948;11.600;2023-07-13T02:49:39;20.10;92.30
18882;DHT22;9573;50.948;11.600;2023-07-13T02:52:06;20.10;92.20
18882;DHT22;9573;50.948;11.600;2023-07-13T02:54:34;20.10;92.20
18882;DHT22;9573;50.948;11.600;2023-07-13T02:57:01;20.00;92.20
18882;DHT22;9573;50.948;11.600;2023-07-13T02:59:28;20.00;92.30
18882;DHT22;9573;50.948;11.600;2023-07-13T03:01:55;20.00;92.30
18882;DHT22;9573;50.948;11.600;2023-07-13T03:04:23;20.00;92.40
18882;DHT22;9573;50.948;11.600;2023-07-13T03:06:50;20.10;92.40
18882;DHT22;9573;50.948;11.600;2023-07-13T03:09:17;20.10;92.30
18882;DHT22;9573;50.948;11.600;2023-07-13T03:11:44;20.10;92.30
18882;DHT22;9573;50.948;11.600;2023-07-13T03:14:12;20.10;92.40
18882;DHT22;9573;50.948;11.600;2023-07-13T03:16:39;20.10;92.50
18882;DHT22;9573;50.948;11.600;2023-07-13T03:19:06;20.10;92.50
18882;DHT22;9573;50.948;11.600;2023-07-13T03:21:34;20.10;92.60
18882;DHT22;9573;50.948;11.600;2023-07-13T03:24:02;20.10;92.70
18882;DHT22;9573;50.948;11.600;2023-07-13T03:26:29;20.00;92.80
18882;DHT22;9573;50.948;11.600;2023-07-13T03:28:56;19.90;92.90
18882;DHT22;9573;50.948;11.600;2023-07-13T03:31:26;19.80;92.90
18882;DHT22;9573;50.948;11.600;2023-07-13T03:33:56;19.70;93.00
18882;DHT22;9573;50.948;11.600;2023-07-13T03:36:25;19.70;93.20
18882;DHT22;9573;50.948;11.600;2023-07-13T03:38:56;19.60;93.40
18882;DHT22;9573;50.948;11.600;2023-07-13T03:41:25;19.80;93.30
18882;DHT22;9573;50.948;11.600;2023-07-13T03:43:52;20.10;93.00
18882;DHT22;9573;50.948;11.600;2023-07-13T03:46:20;20.20;92.80
18882;DHT22;9573;50.948;11.600;2023-07-13T03:48:48;20.20;92.90
18882;DHT22;9573;50.948;11.600;2023-07-13T03:51:16;20.00;93.10
18882;DHT22;9573;50.948;11.600;2023-07-13T03:53:45;19.80;93.40
18882;DHT22;9573;50.948;11.600;2023-07-13T03:56:16;19.80;93.50
18882;DHT22;9573;50.948;11.600;2023-07-13T03:58:45;19.80;93.70
18882;DHT22;9573;50.948;11.600;2023-07-13T04:01:15;20.00;93.70
18882;DHT22;9573;50.948;11.600;2023-07-13T04:03:43;20.90;92.80
18882;DHT22;9573;50.948;11.600;2023-07-13T04:06:15;21.90;91.60
18882;DHT22;9573;50.948;11.600;2023-07-13T04:08:47;22.80;90.40
18882;DHT22;9573;50.948;11.600;2023-07-13T04:11:18;24.30;87.20
18882;DHT22;9573;50.948;11.600;2023-07-13T04:13:45;25.60;83.50
18882;DHT22;9573;50.948;11.600;2023-07-13T04:16:13;25.30;82.20
18882;DHT22;9573;50.948;11.600;2023-07-13T04:18:40;24.50;83.80
18882;DHT22;9573;50.948;11.600;2023-07-13T04:21:08;23.70;85.70
18882;DHT22;9573;50.948;11.600;2023-07-13T04:23:35;23.20;87.30
18882;DHT22;9573;50.948;11.600;2023-07-13T04:26:03;22.80;88.40
18882;DHT22;9573;50.948;11.600;2023-07-13T04:28:32;22.50;89.70
18882;DHT22;9573;50.948;11.600;2023-07-13T04:30:59;22.20;90.10
18882;DHT22;9573;50.948;11.600;2023-07-13T04:33:26;21.90;90.40
18882;DHT22;9573;50.948;11.600;2023-07-13T04:35:55;21.90;90.60
18882;DHT22;9573;50.948;11.600;2023-07-13T04:38:23;21.90;90.60
18882;DHT22;9573;50.948;11.600;2023-07-13T04:40:51;21.80;90.90
18882;DHT22;9573;50.948;11.600;2023-07-13T04:43:18;21.90;90.90
18882;DHT22;9573;50.948;11.600;2023-07-13T04:45:47;21.70;91.20
18882;DHT22;9573;50.948;11.600;2023-07-13T04:48:14;21.70;91.50
18882;DHT22;9573;50.948;11.600;2023-07-13T04:50:41;24.10;88.80
18882;DHT22;9573;50.948;11.600;2023-07-13T04:53:09;26.90;81.50
18882;DHT22;9573;50.948;11.600;2023-07-13T04:55:37;28.70;77.40
18882;DHT22;9573;50.948;11.600;2023-07-13T04:58:04;27.90;75.70
18882;DHT22;9573;50.948;11.600;2023-07-13T05:00:31;26.70;77.60
18882;DHT22;9573;50.948;11.600;2023-07-13T05:03:00;26.10;79.40
18882;DHT22;9573;50.948;11.600;2023-07-13T05:05:27;25.80;79.10
18882;DHT22;9573;50.948;11.600;2023-07-13T05:07:54;24.70;81.70
18882;DHT22;9573;50.948;11.600;2023-07-13T05:10:22;23.80;84.50
18882;DHT22;9573;50.948;11.600;2023-07-13T05:12:50;23.30;86.60
18882;DHT22;9573;50.948;11.600;2023-07-13T05:15:17;23.40;87.10
18882;DHT22;9573;50.948;11.600;2023-07-13T05:17:46;24.80;85.00
18882;DHT22;9573;50.948;11.600;2023-07-13T05:20:16;26.10;81.60
18882;DHT22;9573;50.948;11.600;2023-07-13T05:22:44;26.50;79.30
18882;DHT22;9573;50.948;11.600;2023-07-13T05:25:13;26.10;79.70
18882;DHT22;9573;50.948;11.600;2023-07-13T05:27:40;25.60;81.50
18882;DHT22;9573;50.948;11.600;2023-07-13T05:30:08;25.10;81.70
18882;DHT22;9573;50.948;11.600;2023-07-13T05:32:37;25.30;82.70
18882;DHT22;9573;50.948;11.600;2023-07-13T05:35:05;27.70;77.90
18882;DHT22;9573;50.948;11.600;2023-07-13T05:37:34;28.30;75.60
18882;DHT22;9573;50.948;11.600;2023-07-13T05:40:02;29.70;72.00
18882;DHT22;9573;50.948;11.600;2023-07-13T05:42:29;32.50;66.70
18882;DHT22;9573;50.948;11.600;2023-07-13T05:44:57;34.60;61.40
18882;DHT22;9573;50.948;11.600;2023-07-13T05:47:25;35.70;58.50
18882;DHT22;9573;50.948;11.600;2023-07-13T05:49:52;34.10;59.90
18882;DHT22;9573;50.948;11.600;2023-07-13T05:52:19;35.30;59.30
18882;DHT22;9573;50.948;11.600;2023-07-13T05:54:47;35.10;57.70
18882;DHT22;9573;50.948;11.600;2023-07-13T05:57:14;34.60;58.50
18882;DHT22;9573;50.948;11.600;2023-07-13T05:59:41;36.70;56.30
18882;DHT22;9573;50.948;11.600;2023-07-13T06:02:09;38.00;54.00
18882;DHT22;9573;50.948;11.600;2023-07-13T06:04:37;39.40;52.10
18882;DHT22;9573;50.948;11.600;2023-07-13T06:07:04;40.00;51.30
18882;DHT22;9573;50.948;11.600;2023-07-13T06:09:31;39.80;50.10
18882;DHT22;9573;50.948;11.600;2023-07-13T06:12:00;38.30;51.10
18882;DHT22;9573;50.948;11.600;2023-07-13T06:14:27;37.00;52.70
18882;DHT22;9573;50.948;11.600;2023-07-13T06:16:54;37.90;52.30
18882;DHT22;9573;50.948;11.600;2023-07-13T06:19:21;38.80;51.00
18882;DHT22;9573;50.948;11.600;2023-07-13T06:21:48;38.90;52.10
18882;DHT22;9573;50.948;11.600;2023-07-13T06:24:15;38.30;50.90
18882;DHT22;9573;50.948;11.600;2023-07-13T06:26:42;36.50;52.90
18882;DHT22;9573;50.948;11.600;2023-07-13T06:29:11;34.90;56.00
18882;DHT22;9573;50.948;11.600;2023-07-13T06:31:38;33.30;57.50
18882;DHT22;9573;50.948;11.600;2023-07-13T06:34:05;32.80;59.20
18882;DHT22;9573;50.948;11.600;2023-07-13T06:36:32;32.20;59.70
18882;DHT22;9573;50.948;11.600;2023-07-13T06:38:59;32.90;58.70
18882;DHT22;9573;50.948;11.600;2023-07-13T06:41:26;34.60;57.60
18882;DHT22;9573;50.948;11.600;2023-07-13T06:43:53;36.80;54.20
18882;DHT22;9573;50.948;11.600;2023-07-13T06:46:22;36.70;53.10
18882;DHT22;9573;50.948;11.600;2023-07-13T06:48:50;34.80;54.30
18882;DHT22;9573;50.948;11.600;2023-07-13T06:51:17;33.10;57.00
18882;DHT22;9573;50.948;11.600;2023-07-13T06:53:44;32.60;58.60
18882;DHT22;9573;50.948;11.600;2023-07-13T06:56:11;34.90;56.20
18882;DHT22;9573;50.948;11.600;2023-07-13T06:58:38;35.40;54.80
18882;DHT22;9573;50.948;11.600;2023-07-13T07:01:05;36.70;53.80
18882;DHT22;9573;50.948;11.600;2023-07-13T07:03:34;37.50;52.00
18882;DHT22;9573;50.948;11.600;2023-07-13T07:06:01;37.90;52.10
18882;DHT22;9573;50.948;11.600;2023-07-13T07:08:33;39.50;50.30
18882;DHT22;9573;50.948;11.600;2023-07-13T07:11:00;41.70;48.40
18882;DHT22;9573;50.948;11.600;2023-07-13T07:13:27;41.90;47.30
18882;DHT22;9573;50.948;11.600;2023-07-13T07:15:55;42.90;45.80
18882;DHT22;9573;50.948;11.600;2023-07-13T07:18:22;43.80;44.80
18882;DHT22;9573;50.948;11.600;2023-07-13T07:20:51;45.20;43.20
18882;DHT22;9573;50.948;11.600;2023-07-13T07:23:18;46.00;41.90
18882;DHT22;9573;50.948;11.600;2023-07-13T07:25:45;46.60;40.20
18882;DHT22;9573;50.948;11.600;2023-07-13T07:28:15;46.80;39.60
18882;DHT22;9573;50.948;11.600;2023-07-13T07:30:44;47.20;39.10
18882;DHT22;9573;50.948;11.600;2023-07-13T07:33:11;46.20;39.10
18882;DHT22;9573;50.948;11.600;2023-07-13T07:35:39;45.50;39.70
18882;DHT22;9573;50.948;11.600;2023-07-13T07:38:07;46.10;39.70
18882;DHT22;9573;50.948;11.600;2023-07-13T07:40:37;45.70;38.70
18882;DHT22;9573;50.948;11.600;2023-07-13T07:43:05;45.00;39.80
18882;DHT22;9573;50.948;11.600;2023-07-13T07:45:32;43.30;40.80
18882;DHT22;9573;50.948;11.600;2023-07-13T07:47:59;42.00;42.50
18882;DHT22;9573;50.948;11.600;2023-07-13T07:50:26;41.60;42.80
18882;DHT22;9573;50.948;11.600;2023-07-13T07:52:54;40.90;43.50
18882;DHT22;9573;50.948;11.600;2023-07-13T07:55:24;39.50;44.40
18882;DHT22;9573;50.948;11.600;2023-07-13T07:57:52;39.70;45.00
18882;DHT22;9573;50.948;11.600;2023-07-13T08:00:20;41.00;43.90
18882;DHT22;9573;50.948;11.600;2023-07-13T08:02:47;42.50;41.80
18882;DHT22;9573;50.948;11.600;2023-07-13T08:05:14;43.20;40.40
18882;DHT22;9573;50.948;11.600;2023-07-13T08:07:42;44.40;40.10
18882;DHT22;9573;50.948;11.600;2023-07-13T08:10:09;44.80;39.90
18882;DHT22;9573;50.948;11.600;2023-07-13T08:12:39;45.30;39.00
18882;DHT22;9573;50.948;11.600;2023-07-13T08:15:11;45.70;38.70
18882;DHT22;9573;50.948;11.600;2023-07-13T08:17:39;46.00;38.40
18882;DHT22;9573;50.948;11.600;2023-07-13T08:20:07;45.70;38.80
18882;DHT22;9573;50.948;11.600;2023-07-13T08:22:35;44.80;38.90
18882;DHT22;9573;50.948;11.600;2023-07-13T08:25:02;43.00;39.70
18882;DHT22;9573;50.948;11.600;2023-07-13T08:27:32;40.40;41.10
18882;DHT22;9573;50.948;11.600;2023-07-13T08:30:01;37.70;43.30
18882;DHT22;9573;50.948;11.600;2023-07-13T08:32:28;35.60;46.10
18882;DHT22;9573;50.948;11.600;2023-07-13T08:34:55;34.20;48.50
18882;DHT22;9573;50.948;11.600;2023-07-13T08:37:22;33.80;49.30
18882;DHT22;9573;50.948;11.600;2023-07-13T08:39:49;34.80;48.20
18882;DHT22;9573;50.948;11.600;2023-07-13T08:42:26;35.40;46.70
18882;DHT22;9573;50.948;11.600;2023-07-13T08:45:07;36.70;45.70
18882;DHT22;9573;50.948;11.600;2023-07-13T08:47:40;38.30;43.80
18882;DHT22;9573;50.948;11.600;2023-07-13T08:50:13;40.00;42.40
18882;DHT22;9573;50.948;11.600;2023-07-13T08:52:43;41.70;41.00
18882;DHT22;9573;50.948;11.600;2023-07-13T08:55:14;43.10;39.40
18882;DHT22;9573;50.948;11.600;2023-07-13T08:57:45;42.60;38.50
18882;DHT22;9573;50.948;11.600;2023-07-13T09:00:15;41.90;39.40
18882;DHT22;9573;50.948;11.600;2023-07-13T09:02:46;42.60;37.60
18882;DHT22;9573;50.948;11.600;2023-07-13T09:05:24;40.40;40.00
18882;DHT22;9573;50.948;11.600;2023-07-13T09:08:21;37.70;43.40
18882;DHT22;9573;50.948;11.600;2023-07-13T09:11:02;34.80;46.80
18882;DHT22;9573;50.948;11.600;2023-07-13T09:13:43;33.10;49.50
18882;DHT22;9573;50.948;11.600;2023-07-13T09:16:16;32.10;50.30
18882;DHT22;9573;50.948;11.600;2023-07-13T09:18:46;31.10;51.50
18882;DHT22;9573;50.948;11.600;2023-07-13T09:21:18;30.30;50.90
18882;DHT22;9573;50.948;11.600;2023-07-13T09:23:50;29.80;50.70
18882;DHT22;9573;50.948;11.600;2023-07-13T09:26:23;29.70;50.50
18882;DHT22;9573;50.948;11.600;2023-07-13T09:28:54;30.50;50.10
18882;DHT22;9573;50.948;11.600;2023-07-13T09:31:31;31.00;50.10
18882;DHT22;9573;50.948;11.600;2023-07-13T09:34:00;31.10;49.80
18882;DHT22;9573;50.948;11.600;2023-07-13T09:36:29;31.30;49.80
18882;DHT22;9573;50.948;11.600;2023-07-13T09:39:02;31.70;49.40
18882;DHT22;9573;50.948;11.600;2023-07-13T09:41:37;33.20;47.90
18882;DHT22;9573;50.948;11.600;2023-07-13T09:44:08;34.30;46.50
18882;DHT22;9573;50.948;11.600;2023-07-13T09:46:43;36.60;45.10
18882;DHT22;9573;50.948;11.600;2023-07-13T09:49:12;39.20;42.50
18882;DHT22;9573;50.948;11.600;2023-07-13T09:51:41;39.90;40.00
18882;DHT22;9573;50.948;11.600;2023-07-13T09:54:19;39.90;40.80
18882;DHT22;9573;50.948;11.600;2023-07-13T09:56:47;39.70;40.40
18882;DHT22;9573;50.948;11.600;2023-07-13T09:59:22;37.70;41.50
18882;DHT22;9573;50.948;11.600;2023-07-13T10:01:51;36.00;43.20
18882;DHT22;9573;50.948;11.600;2023-07-13T10:04:27;34.80;43.10
18882;DHT22;9573;50.948;11.600;2023-07-13T10:07:06;34.80;43.20
18882;DHT22;9573;50.948;11.600;2023-07-13T10:09:35;36.20;42.00
18882;DHT22;9573;50.948;11.600;2023-07-13T10:12:04;36.50;41.10
18882;DHT22;9573;50.948;11.600;2023-07-13T10:14:42;35.80;41.70
18882;DHT22;9573;50.948;11.600;2023-07-13T10:17:13;34.80;41.90
18882;DHT22;9573;50.948;11.600;2023-07-13T10:19:42;33.90;42.80
18882;DHT22;9573;50.948;11.600;2023-07-13T10:22:18;33.40;43.70
18882;DHT22;9573;50.948;11.600;2023-07-13T10:24:50;34.10;43.50
18882;DHT22;9573;50.948;11.600;2023-07-13T10:27:20;35.50;42.20
18882;DHT22;9573;50.948;11.600;2023-07-13T10:30:02;37.50;40.60
18882;DHT22;9573;50.948;11.600;2023-07-13T10:32:36;38.60;38.00
18882;DHT22;9573;50.948;11.600;2023-07-13T10:35:04;39.10;37.80
18882;DHT22;9573;50.948;11.600;2023-07-13T10:37:41;39.40;36.90
18882;DHT22;9573;50.948;11.600;2023-07-13T10:40:13;39.70;36.90
18882;DHT22;9573;50.948;11.600;2023-07-13T10:42:44;39.50;37.30
18882;DHT22;9573;50.948;11.600;2023-07-13T10:45:14;38.80;38.20
18882;DHT22;9573;50.948;11.600;2023-07-13T10:47:45;39.00;37.90
18882;DHT22;9573;50.948;11.600;2023-07-13T10:50:18;37.70;38.50
18882;DHT22;9573;50.948;11.600;2023-07-13T10:52:49;36.20;40.30
18882;DHT22;9573;50.948;11.600;2023-07-13T10:55:35;36.00;40.90
18882;DHT22;9573;50.948;11.600;2023-07-13T10:58:13;35.70;41.10
18882;DHT22;9573;50.948;11.600;2023-07-13T11:00:47;35.90;41.10
18882;DHT22;9573;50.948;11.600;2023-07-13T11:03:21;36.00;40.30
18882;DHT22;9573;50.948;11.600;2023-07-13T11:05:49;35.40;41.30
18882;DHT22;9573;50.948;11.600;2023-07-13T11:08:32;35.60;41.30
18882;DHT22;9573;50.948;11.600;2023-07-13T11:11:02;36.30;41.00
18882;DHT22;9573;50.948;11.600;2023-07-13T11:16:50;37.00;40.20
18882;DHT22;9573;50.948;11.600;2023-07-13T11:19:37;37.70;38.90
18882;DHT22;9573;50.948;11.600;2023-07-13T11:22:24;37.50;39.70
18882;DHT22;9573;50.948;11.600;2023-07-13T11:25:20;37.00;40.90
18882;DHT22;9573;50.948;11.600;2023-07-13T11:28:11;36.90;40.30
18882;DHT22;9573;50.948;11.600;2023-07-13T11:30:44;37.10;39.50
18882;DHT22;9573;50.948;11.600;2023-07-13T11:33:19;37.40;39.80
18882;DHT22;9573;50.948;11.600;2023-07-13T11:35:58;37.90;39.60
18882;DHT22;9573;50.948;11.600;2023-07-13T11:38:32;37.70;38.40
18882;DHT22;9573;50.948;11.600;2023-07-13T11:41:03;37.50;39.10
18882;DHT22;9573;50.948;11.600;2023-07-13T11:43:33;36.80;39.30
18882;DHT22;9573;50.948;11.600;2023-07-13T11:46:13;36.60;39.50
18882;DHT22;9573;50.948;11.600;2023-07-13T11:48:46;36.00;40.40
18882;DHT22;9573;50.948;11.600;2023-07-13T11:51:20;36.20;40.50
18882;DHT22;9573;50.948;11.600;2023-07-13T11:53:53;36.70;40.10
18882;DHT22;9573;50.948;11.600;2023-07-13T11:56:21;36.20;40.50
18882;DHT22;9573;50.948;11.600;2023-07-13T11:58:50;35.40;41.70
18882;DHT22;9573;50.948;11.600;2023-07-13T12:01:21;34.30;42.60
18882;DHT22;9573;50.948;11.600;2023-07-13T12:03:52;34.10;43.40
18882;DHT22;9573;50.948;11.600;2023-07-13T12:06:26;34.70;42.60
18882;DHT22;9573;50.948;11.600;2023-07-13T12:08:58;35.10;42.50
18882;DHT22;9573;50.948;11.600;2023-07-13T12:11:27;35.30;42.20
18882;DHT22;9573;50.948;11.600;2023-07-13T12:13:54;34.30;43.10
18882;DHT22;9573;50.948;11.600;2023-07-13T12:16:28;34.10;43.20
18882;DHT22;9573;50.948;11.600;2023-07-13T12:18:59;34.30;42.50
18882;DHT22;9573;50.948;11.600;2023-07-13T12:21:31;34.30;42.60
18882;DHT22;9573;50.948;11.600;2023-07-13T12:24:00;34.10;42.50
18882;DHT22;9573;50.948;11.600;2023-07-13T12:26:32;33.40;43.10
18882;DHT22;9573;50.948;11.600;2023-07-13T12:29:01;33.00;43.60
18882;DHT22;9573;50.948;11.600;2023-07-13T12:31:36;32.60;44.10
18882;DHT22;9573;50.948;11.600;2023-07-13T12:34:09;32.20;44.90
18882;DHT22;9573;50.948;11.600;2023-07-13T12:36:46;31.70;46.10
18882;DHT22;9573;50.948;11.600;2023-07-13T12:39:17;32.00;46.00
18882;DHT22;9573;50.948;11.600;2023-07-13T12:41:47;32.80;45.20
18882;DHT22;9573;50.948;11.600;2023-07-13T12:44:17;33.00;44.50
18882;DHT22;9573;50.948;11.600;2023-07-13T12:46:54;32.40;45.10
18882;DHT22;9573;50.948;11.600;2023-07-13T12:49:27;31.50;46.50
18882;DHT22;9573;50.948;11.600;2023-07-13T12:51:59;31.40;47.20
18882;DHT22;9573;50.948;11.600;2023-07-13T12:54:28;31.80;46.20
18882;DHT22;9573;50.948;11.600;2023-07-13T12:56:57;32.20;46.50
18882;DHT22;9573;50.948;11.600;2023-07-13T12:59:30;32.40;45.30
18882;DHT22;9573;50.948;11.600;2023-07-13T13:02:02;32.00;45.90
18882;DHT22;9573;50.948;11.600;2023-07-13T13:04:44;31.90;46.70
18882;DHT22;9573;50.948;11.600;2023-07-13T13:07:13;31.90;46.30
18882;DHT22;9573;50.948;11.600;2023-07-13T13:09:40;31.90;46.30
18882;DHT22;9573;50.948;11.600;2023-07-13T13:12:08;31.70;46.30
18882;DHT22;9573;50.948;11.600;2023-07-13T13:14:35;31.50;46.40
18882;DHT22;9573;50.948;11.600;2023-07-13T13:17:18;31.20;47.00
18882;DHT22;9573;50.948;11.600;2023-07-13T13:19:46;30.90;47.40
18882;DHT22;9573;50.948;11.600;2023-07-13T13:22:15;31.00;47.20
18882;DHT22;9573;50.948;11.600;2023-07-13T13:24:42;30.80;47.10
18882;DHT22;9573;50.948;11.600;2023-07-13T13:27:15;30.50;48.10
18882;DHT22;9573;50.948;11.600;2023-07-13T13:29:44;30.40;47.90
18882;DHT22;9573;50.948;11.600;2023-07-13T13:32:13;30.20;47.80
18882;DHT22;9573;50.948;11.600;2023-07-13T13:34:40;30.30;47.80
18882;DHT22;9573;50.948;11.600;2023-07-13T13:37:18;30.50;47.90
18882;DHT22;9573;50.948;11.600;2023-07-13T13:39:46;30.60;47.90
18882;DHT22;9573;50.948;11.600;2023-07-13T13:42:14;30.60;47.30
18882;DHT22;9573;50.948;11.600;2023-07-13T13:44:41;30.60;47.40
18882;DHT22;9573;50.948;11.600;2023-07-13T13:47:28;30.50;47.60
18882;DHT22;9573;50.948;11.600;2023-07-13T13:49:56;30.40;47.60
18882;DHT22;9573;50.948;11.600;2023-07-13T13:52:25;30.50;47.50
18882;DHT22;9573;50.948;11.600;2023-07-13T13:54:52;30.70;47.20
18882;DHT22;9573;50.948;11.600;2023-07-13T13:57:22;30.60;47.00
18882;DHT22;9573;50.948;11.600;2023-07-13T13:59:50;30.60;47.40
18882;DHT22;9573;50.948;11.600;2023-07-13T14:02:25;30.60;47.40
18882;DHT22;9573;50.948;11.600;2023-07-13T14:04:56;30.20;47.10
18882;DHT22;9573;50.948;11.600;2023-07-13T14:07:26;30.20;48.00
18882;DHT22;9573;50.948;11.600;2023-07-13T14:09:57;30.20;48.00
18882;DHT22;9573;50.948;11.600;2023-07-13T14:12:25;30.00;48.20
18882;DHT22;9573;50.948;11.600;2023-07-13T14:14:54;29.80;48.50
18882;DHT22;9573;50.948;11.600;2023-07-13T14:17:25;29.60;49.10
18882;DHT22;9573;50.948;11.600;2023-07-13T14:19:53;29.70;48.90
18882;DHT22;9573;50.948;11.600;2023-07-13T14:22:23;29.90;48.40
18882;DHT22;9573;50.948;11.600;2023-07-13T14:24:53;30.00;48.70
18882;DHT22;9573;50.948;11.600;2023-07-13T14:27:20;30.00;48.90
18882;DHT22;9573;50.948;11.600;2023-07-13T14:29:48;30.10;49.00
18882;DHT22;9573;50.948;11.600;2023-07-13T14:32:15;30.00;48.80
18882;DHT22;9573;50.948;11.600;2023-07-13T14:34:42;30.00;48.50
18882;DHT22;9573;50.948;11.600;2023-07-13T14:37:12;30.00;48.40
18882;DHT22;9573;50.948;11.600;2023-07-13T14:39:43;29.80;48.10
18882;DHT22;9573;50.948;11.600;2023-07-13T14:42:12;29.40;48.70
18882;DHT22;9573;50.948;11.600;2023-07-13T14:44:39;29.40;48.80
18882;DHT22;9573;50.948;11.600;2023-07-13T14:47:07;29.40;49.10
18882;DHT22;9573;50.948;11.600;2023-07-13T14:49:36;29.40;49.10
18882;DHT22;9573;50.948;11.600;2023-07-13T14:52:11;29.40;49.20
18882;DHT22;9573;50.948;11.600;2023-07-13T14:54:40;29.20;49.70
18882;DHT22;9573;50.948;11.600;2023-07-13T14:57:11;29.00;49.90
18882;DHT22;9573;50.948;11.600;2023-07-13T14:59:39;28.90;49.90
18882;DHT22;9573;50.948;11.600;2023-07-13T15:02:16;28.90;49.90
18882;DHT22;9573;50.948;11.600;2023-07-13T15:04:44;28.90;49.70
18882;DHT22;9573;50.948;11.600;2023-07-13T15:07:11;28.90;49.80
18882;DHT22;9573;50.948;11.600;2023-07-13T15:09:41;29.00;49.80
18882;DHT22;9573;50.948;11.600;2023-07-13T15:12:09;28.90;49.50
18882;DHT22;9573;50.948;11.600;2023-07-13T15:14:37;28.80;50.10
18882;DHT22;9573;50.948;11.600;2023-07-13T15:17:05;28.80;49.90
18882;DHT22;9573;50.948;11.600;2023-07-13T15:19:34;28.80;50.10
18882;DHT22;9573;50.948;11.600;2023-07-13T15:22:02;29.00;49.80
18882;DHT22;9573;50.948;11.600;2023-07-13T15:24:30;29.00;49.40
18882;DHT22;9573;50.948;11.600;2023-07-13T15:26:57;28.90;49.50
18882;DHT22;9573;50.948;11.600;2023-07-13T15:29:24;28.80;49.60
18882;DHT22;9573;50.948;11.600;2023-07-13T15:31:53;28.60;49.50
18882;DHT22;9573;50.948;11.600;2023-07-13T15:34:24;28.70;49.50
18882;DHT22;9573;50.948;11.600;2023-07-13T15:36:52;28.90;49.70
18882;DHT22;9573;50.948;11.600;2023-07-13T15:39:19;28.90;49.50
18882;DHT22;9573;50.948;11.600;2023-07-13T15:41:47;28.80;49.50
18882;DHT22;9573;50.948;11.600;2023-07-13T15:44:26;28.70;49.80
18882;DHT22;9573;50.948;11.600;2023-07-13T15:46:56;28.50;50.10
18882;DHT22;9573;50.948;11.600;2023-07-13T15:49:25;28.40;50.50
18882;DHT22;9573;50.948;11.600;2023-07-13T15:51:53;28.40;51.00